Rayo Cortado, Argentina
Current Conditions -  °F | °C
As of 3:00 PM on Monday 20 Oct 2014 (Local Time) from SACO Reporting Station
Clear Clear  
Wind Chill: 82°   Ceiling: Unl
Heat Index: 82°   Visibility: 6mi
Dew Point: 50°   Wind: 23mph
Humidity: 32%   Direction: 20°NNE
Pressure: 30.09"   Gusts: NA
Location:  30.08°S, 63.82°W
Report Text: SACO 201800Z 02020KT CAVOK 28/10 Q1019
Loading
Personal Weather Stations






























Interactive Weather Map
Tropical Storm Tracking
New forecast layout! Learn more

10-Day Weather Forecast

Advertisements
Track Severe Weather on mobile